sensor_id;sensor_type;location;lat;lon;timestamp;P1;durP1;ratioP1;P2;durP2;ratioP2
9208;SDS011;4639;48.862;9.188;2023-07-02T00:01:34;5.43;;;3.50;;
9208;SDS011;4639;48.862;9.188;2023-07-02T00:04:00;4.20;;;3.03;;
9208;SDS011;4639;48.862;9.188;2023-07-02T00:06:25;4.38;;;3.20;;
9208;SDS011;4639;48.862;9.188;2023-07-02T00:08:51;7.78;;;3.50;;
9208;SDS011;4639;48.862;9.188;2023-07-02T00:11:16;4.43;;;3.47;;
9208;SDS011;4639;48.862;9.188;2023-07-02T00:13:42;3.58;;;3.28;;
9208;SDS011;4639;48.862;9.188;2023-07-02T00:16:07;3.53;;;3.20;;
9208;SDS011;4639;48.862;9.188;2023-07-02T00:18:33;5.15;;;3.40;;
9208;SDS011;4639;48.862;9.188;2023-07-02T00:21:02;6.18;;;3.70;;
9208;SDS011;4639;48.862;9.188;2023-07-02T00:23:28;3.50;;;3.20;;
9208;SDS011;4639;48.862;9.188;2023-07-02T00:25:54;4.20;;;3.55;;
9208;SDS011;4639;48.862;9.188;2023-07-02T00:28:21;3.78;;;3.40;;
9208;SDS011;4639;48.862;9.188;2023-07-02T00:30:46;5.75;;;3.50;;
9208;SDS011;4639;48.862;9.188;2023-07-02T00:33:12;4.97;;;3.28;;
9208;SDS011;4639;48.862;9.188;2023-07-02T00:35:37;3.88;;;3.47;;
9208;SDS011;4639;48.862;9.188;2023-07-02T00:38:03;4.53;;;3.42;;
9208;SDS011;4639;48.862;9.188;2023-07-02T00:40:29;4.10;;;3.30;;
9208;SDS011;4639;48.862;9.188;2023-07-02T00:42:54;4.55;;;3.17;;
9208;SDS011;4639;48.862;9.188;2023-07-02T00:45:21;5.75;;;3.63;;
9208;SDS011;4639;48.862;9.188;2023-07-02T00:47:47;3.38;;;2.97;;
9208;SDS011;4639;48.862;9.188;2023-07-02T00:50:13;4.10;;;3.03;;
9208;SDS011;4639;48.862;9.188;2023-07-02T00:52:39;4.60;;;3.42;;
9208;SDS011;4639;48.862;9.188;2023-07-02T00:55:04;4.53;;;2.95;;
9208;SDS011;4639;48.862;9.188;2023-07-02T00:57:30;4.45;;;3.15;;
9208;SDS011;4639;48.862;9.188;2023-07-02T00:59:57;4.10;;;3.05;;
9208;SDS011;4639;48.862;9.188;2023-07-02T01:02:25;3.30;;;2.78;;
9208;SDS011;4639;48.862;9.188;2023-07-02T01:04:54;2.58;;;2.38;;
9208;SDS011;4639;48.862;9.188;2023-07-02T01:07:23;3.40;;;2.90;;
9208;SDS011;4639;48.862;9.188;2023-07-02T01:09:48;4.00;;;2.92;;
9208;SDS011;4639;48.862;9.188;2023-07-02T01:12:14;3.55;;;2.80;;
9208;SDS011;4639;48.862;9.188;2023-07-02T01:14:44;3.35;;;3.05;;
9208;SDS011;4639;48.862;9.188;2023-07-02T01:17:13;3.42;;;2.83;;
9208;SDS011;4639;48.862;9.188;2023-07-02T01:19:43;5.32;;;3.20;;
9208;SDS011;4639;48.862;9.188;2023-07-02T01:22:16;6.22;;;3.20;;
9208;SDS011;4639;48.862;9.188;2023-07-02T01:24:43;3.10;;;2.80;;
9208;SDS011;4639;48.862;9.188;2023-07-02T01:27:11;6.43;;;3.00;;
9208;SDS011;4639;48.862;9.188;2023-07-02T01:29:37;7.18;;;2.88;;
9208;SDS011;4639;48.862;9.188;2023-07-02T01:32:02;3.45;;;2.70;;
9208;SDS011;4639;48.862;9.188;2023-07-02T01:34:28;4.90;;;2.95;;
9208;SDS011;4639;48.862;9.188;2023-07-02T01:36:54;5.57;;;2.85;;
9208;SDS011;4639;48.862;9.188;2023-07-02T01:39:19;6.38;;;3.22;;
9208;SDS011;4639;48.862;9.188;2023-07-02T01:41:49;3.50;;;3.20;;
9208;SDS011;4639;48.862;9.188;2023-07-02T01:44:16;4.55;;;2.88;;
9208;SDS011;4639;48.862;9.188;2023-07-02T01:46:42;5.90;;;2.55;;
9208;SDS011;4639;48.862;9.188;2023-07-02T01:49:08;4.50;;;2.92;;
9208;SDS011;4639;48.862;9.188;2023-07-02T01:51:33;5.57;;;2.90;;
9208;SDS011;4639;48.862;9.188;2023-07-02T01:53:59;4.10;;;2.72;;
9208;SDS011;4639;48.862;9.188;2023-07-02T01:56:26;3.78;;;2.42;;
9208;SDS011;4639;48.862;9.188;2023-07-02T01:58:53;6.70;;;2.90;;
9208;SDS011;4639;48.862;9.188;2023-07-02T02:01:19;3.70;;;2.97;;
9208;SDS011;4639;48.862;9.188;2023-07-02T02:03:44;3.10;;;2.80;;
9208;SDS011;4639;48.862;9.188;2023-07-02T02:06:10;3.95;;;2.78;;
9208;SDS011;4639;48.862;9.188;2023-07-02T02:08:35;6.22;;;3.13;;
9208;SDS011;4639;48.862;9.188;2023-07-02T02:11:01;3.30;;;3.00;;
9208;SDS011;4639;48.862;9.188;2023-07-02T02:13:26;3.33;;;2.88;;
9208;SDS011;4639;48.862;9.188;2023-07-02T02:15:53;3.75;;;3.10;;
9208;SDS011;4639;48.862;9.188;2023-07-02T02:18:19;7.68;;;2.90;;
9208;SDS011;4639;48.862;9.188;2023-07-02T02:20:44;4.57;;;3.30;;
9208;SDS011;4639;48.862;9.188;2023-07-02T02:23:10;4.78;;;2.75;;
9208;SDS011;4639;48.862;9.188;2023-07-02T02:25:36;4.88;;;3.08;;
9208;SDS011;4639;48.862;9.188;2023-07-02T02:28:01;2.90;;;2.42;;
9208;SDS011;4639;48.862;9.188;2023-07-02T02:30:27;5.15;;;3.05;;
9208;SDS011;4639;48.862;9.188;2023-07-02T02:32:53;3.10;;;2.60;;
9208;SDS011;4639;48.862;9.188;2023-07-02T02:35:18;4.38;;;3.13;;
9208;SDS011;4639;48.862;9.188;2023-07-02T02:37:44;3.60;;;3.05;;
9208;SDS011;4639;48.862;9.188;2023-07-02T02:40:09;4.28;;;2.70;;
9208;SDS011;4639;48.862;9.188;2023-07-02T02:42:35;5.10;;;2.90;;
9208;SDS011;4639;48.862;9.188;2023-07-02T02:45:01;3.88;;;3.10;;
9208;SDS011;4639;48.862;9.188;2023-07-02T02:47:27;3.00;;;2.80;;
9208;SDS011;4639;48.862;9.188;2023-07-02T02:49:53;4.07;;;2.38;;
9208;SDS011;4639;48.862;9.188;2023-07-02T02:52:18;5.68;;;2.90;;
9208;SDS011;4639;48.862;9.188;2023-07-02T02:54:45;4.15;;;3.00;;
9208;SDS011;4639;48.862;9.188;2023-07-02T02:57:11;4.43;;;2.75;;
9208;SDS011;4639;48.862;9.188;2023-07-02T02:59:36;3.92;;;2.83;;
9208;SDS011;4639;48.862;9.188;2023-07-02T03:02:02;5.15;;;2.90;;
9208;SDS011;4639;48.862;9.188;2023-07-02T03:04:28;8.95;;;2.50;;
9208;SDS011;4639;48.862;9.188;2023-07-02T03:06:54;4.05;;;2.80;;
9208;SDS011;4639;48.862;9.188;2023-07-02T03:09:20;3.45;;;2.90;;
9208;SDS011;4639;48.862;9.188;2023-07-02T03:11:46;8.57;;;3.05;;
9208;SDS011;4639;48.862;9.188;2023-07-02T03:14:12;6.72;;;2.92;;
9208;SDS011;4639;48.862;9.188;2023-07-02T03:16:39;8.05;;;2.72;;
9208;SDS011;4639;48.862;9.188;2023-07-02T03:19:04;7.85;;;3.10;;
9208;SDS011;4639;48.862;9.188;2023-07-02T03:21:30;8.00;;;3.55;;
9208;SDS011;4639;48.862;9.188;2023-07-02T03:23:57;10.27;;;3.50;;
9208;SDS011;4639;48.862;9.188;2023-07-02T03:26:22;6.18;;;3.53;;
9208;SDS011;4639;48.862;9.188;2023-07-02T03:28:49;6.97;;;3.65;;
9208;SDS011;4639;48.862;9.188;2023-07-02T03:31:14;9.25;;;4.10;;
9208;SDS011;4639;48.862;9.188;2023-07-02T03:33:40;7.22;;;4.60;;
9208;SDS011;4639;48.862;9.188;2023-07-02T03:36:05;7.70;;;4.00;;
9208;SDS011;4639;48.862;9.188;2023-07-02T03:38:31;9.10;;;5.13;;
9208;SDS011;4639;48.862;9.188;2023-07-02T03:40:57;10.95;;;4.75;;
9208;SDS011;4639;48.862;9.188;2023-07-02T03:43:23;11.63;;;4.47;;
9208;SDS011;4639;48.862;9.188;2023-07-02T03:45:50;5.88;;;4.22;;
9208;SDS011;4639;48.862;9.188;2023-07-02T03:48:16;8.73;;;4.40;;
9208;SDS011;4639;48.862;9.188;2023-07-02T03:50:42;10.50;;;4.50;;
9208;SDS011;4639;48.862;9.188;2023-07-02T03:53:07;10.80;;;5.13;;
9208;SDS011;4639;48.862;9.188;2023-07-02T03:55:33;13.45;;;4.32;;
9208;SDS011;4639;48.862;9.188;2023-07-02T03:57:59;9.98;;;4.90;;
9208;SDS011;4639;48.862;9.188;2023-07-02T04:00:24;10.80;;;4.90;;
9208;SDS011;4639;48.862;9.188;2023-07-02T04:02:50;9.95;;;4.50;;
9208;SDS011;4639;48.862;9.188;2023-07-02T04:05:15;7.80;;;4.95;;
9208;SDS011;4639;48.862;9.188;2023-07-02T04:07:41;7.13;;;4.70;;
9208;SDS011;4639;48.862;9.188;2023-07-02T04:10:07;8.00;;;5.00;;
9208;SDS011;4639;48.862;9.188;2023-07-02T04:12:33;13.75;;;5.68;;
9208;SDS011;4639;48.862;9.188;2023-07-02T04:14:58;11.93;;;4.88;;
9208;SDS011;4639;48.862;9.188;2023-07-02T04:17:24;10.15;;;5.57;;
9208;SDS011;4639;48.862;9.188;2023-07-02T04:19:49;14.43;;;6.05;;
9208;SDS011;4639;48.862;9.188;2023-07-02T04:22:15;8.73;;;5.47;;
9208;SDS011;4639;48.862;9.188;2023-07-02T04:24:41;9.07;;;5.05;;
9208;SDS011;4639;48.862;9.188;2023-07-02T04:27:06;7.45;;;4.97;;
9208;SDS011;4639;48.862;9.188;2023-07-02T04:29:32;12.00;;;4.72;;
9208;SDS011;4639;48.862;9.188;2023-07-02T04:31:58;6.95;;;4.80;;
9208;SDS011;4639;48.862;9.188;2023-07-02T04:34:23;7.05;;;4.30;;
9208;SDS011;4639;48.862;9.188;2023-07-02T04:36:49;6.28;;;4.47;;
9208;SDS011;4639;48.862;9.188;2023-07-02T04:39:15;8.88;;;4.40;;
9208;SDS011;4639;48.862;9.188;2023-07-02T04:41:40;8.48;;;4.60;;
9208;SDS011;4639;48.862;9.188;2023-07-02T04:44:06;11.00;;;4.45;;
9208;SDS011;4639;48.862;9.188;2023-07-02T04:46:31;7.97;;;4.35;;
9208;SDS011;4639;48.862;9.188;2023-07-02T04:48:57;10.23;;;4.43;;
9208;SDS011;4639;48.862;9.188;2023-07-02T04:51:22;6.90;;;4.45;;
9208;SDS011;4639;48.862;9.188;2023-07-02T04:53:48;8.00;;;4.72;;
9208;SDS011;4639;48.862;9.188;2023-07-02T04:56:14;10.25;;;4.40;;
9208;SDS011;4639;48.862;9.188;2023-07-02T04:58:39;9.27;;;4.38;;
9208;SDS011;4639;48.862;9.188;2023-07-02T05:01:05;9.68;;;4.38;;
9208;SDS011;4639;48.862;9.188;2023-07-02T05:03:30;9.15;;;4.22;;
9208;SDS011;4639;48.862;9.188;2023-07-02T05:05:56;7.07;;;3.85;;
9208;SDS011;4639;48.862;9.188;2023-07-02T05:08:21;8.10;;;3.55;;
9208;SDS011;4639;48.862;9.188;2023-07-02T05:10:47;6.07;;;3.92;;
9208;SDS011;4639;48.862;9.188;2023-07-02T05:13:12;8.93;;;3.95;;
9208;SDS011;4639;48.862;9.188;2023-07-02T05:15:38;9.30;;;4.43;;
9208;SDS011;4639;48.862;9.188;2023-07-02T05:18:04;6.68;;;4.03;;
9208;SDS011;4639;48.862;9.188;2023-07-02T05:20:31;9.60;;;4.28;;
9208;SDS011;4639;48.862;9.188;2023-07-02T05:22:57;4.97;;;3.63;;
9208;SDS011;4639;48.862;9.188;2023-07-02T05:25:22;4.07;;;3.15;;
9208;SDS011;4639;48.862;9.188;2023-07-02T05:27:48;9.07;;;3.85;;
9208;SDS011;4639;48.862;9.188;2023-07-02T05:30:13;5.95;;;3.85;;
9208;SDS011;4639;48.862;9.188;2023-07-02T05:32:39;6.90;;;3.92;;
9208;SDS011;4639;48.862;9.188;2023-07-02T05:35:05;5.88;;;3.88;;
9208;SDS011;4639;48.862;9.188;2023-07-02T05:37:31;9.40;;;4.10;;
9208;SDS011;4639;48.862;9.188;2023-07-02T05:39:56;5.53;;;3.92;;
9208;SDS011;4639;48.862;9.188;2023-07-02T05:42:22;9.68;;;4.32;;
9208;SDS011;4639;48.862;9.188;2023-07-02T05:44:47;5.53;;;3.60;;
9208;SDS011;4639;48.862;9.188;2023-07-02T05:47:13;8.68;;;4.20;;
9208;SDS011;4639;48.862;9.188;2023-07-02T05:49:38;11.93;;;4.40;;
9208;SDS011;4639;48.862;9.188;2023-07-02T05:52:06;8.75;;;4.75;;
9208;SDS011;4639;48.862;9.188;2023-07-02T05:54:32;14.73;;;5.20;;
9208;SDS011;4639;48.862;9.188;2023-07-02T05:56:57;8.63;;;5.40;;
9208;SDS011;4639;48.862;9.188;2023-07-02T05:59:23;13.88;;;5.70;;
9208;SDS011;4639;48.862;9.188;2023-07-02T06:01:48;8.07;;;5.65;;
9208;SDS011;4639;48.862;9.188;2023-07-02T06:04:14;8.25;;;5.35;;
9208;SDS011;4639;48.862;9.188;2023-07-02T06:06:39;18.00;;;6.55;;
9208;SDS011;4639;48.862;9.188;2023-07-02T06:09:05;9.10;;;5.72;;
9208;SDS011;4639;48.862;9.188;2023-07-02T06:11:31;8.48;;;5.80;;
9208;SDS011;4639;48.862;9.188;2023-07-02T06:13:56;11.05;;;5.43;;
9208;SDS011;4639;48.862;9.188;2023-07-02T06:16:22;7.43;;;4.97;;
9208;SDS011;4639;48.862;9.188;2023-07-02T06:18:47;7.72;;;5.32;;
9208;SDS011;4639;48.862;9.188;2023-07-02T06:21:13;12.80;;;5.50;;
9208;SDS011;4639;48.862;9.188;2023-07-02T06:23:39;11.05;;;5.70;;
9208;SDS011;4639;48.862;9.188;2023-07-02T06:26:08;9.68;;;5.38;;
9208;SDS011;4639;48.862;9.188;2023-07-02T06:28:34;11.30;;;5.70;;
9208;SDS011;4639;48.862;9.188;2023-07-02T06:30:59;14.07;;;6.60;;
9208;SDS011;4639;48.862;9.188;2023-07-02T06:33:25;10.88;;;6.15;;
9208;SDS011;4639;48.862;9.188;2023-07-02T06:35:51;10.75;;;7.13;;
9208;SDS011;4639;48.862;9.188;2023-07-02T06:38:16;10.25;;;6.03;;
9208;SDS011;4639;48.862;9.188;2023-07-02T06:40:42;10.27;;;6.13;;
9208;SDS011;4639;48.862;9.188;2023-07-02T06:43:07;12.00;;;6.75;;
9208;SDS011;4639;48.862;9.188;2023-07-02T06:45:33;11.85;;;6.28;;
9208;SDS011;4639;48.862;9.188;2023-07-02T06:47:58;11.60;;;6.38;;
9208;SDS011;4639;48.862;9.188;2023-07-02T06:50:24;11.48;;;6.10;;
9208;SDS011;4639;48.862;9.188;2023-07-02T06:52:49;9.93;;;6.53;;
9208;SDS011;4639;48.862;9.188;2023-07-02T06:55:15;12.82;;;6.78;;
9208;SDS011;4639;48.862;9.188;2023-07-02T06:57:44;10.73;;;6.07;;
9208;SDS011;4639;48.862;9.188;2023-07-02T07:00:13;9.52;;;6.40;;
9208;SDS011;4639;48.862;9.188;2023-07-02T07:02:39;8.55;;;5.95;;
9208;SDS011;4639;48.862;9.188;2023-07-02T07:05:04;9.68;;;6.82;;
9208;SDS011;4639;48.862;9.188;2023-07-02T07:07:30;12.93;;;7.15;;
9208;SDS011;4639;48.862;9.188;2023-07-02T07:09:56;13.30;;;6.20;;
9208;SDS011;4639;48.862;9.188;2023-07-02T07:12:22;13.50;;;6.72;;
9208;SDS011;4639;48.862;9.188;2023-07-02T07:14:47;9.93;;;6.60;;
9208;SDS011;4639;48.862;9.188;2023-07-02T07:17:13;8.52;;;6.30;;
9208;SDS011;4639;48.862;9.188;2023-07-02T07:19:38;12.45;;;6.70;;
9208;SDS011;4639;48.862;9.188;2023-07-02T07:22:04;12.02;;;7.20;;
9208;SDS011;4639;48.862;9.188;2023-07-02T07:24:29;13.32;;;7.85;;
9208;SDS011;4639;48.862;9.188;2023-07-02T07:26:55;14.57;;;8.13;;
9208;SDS011;4639;48.862;9.188;2023-07-02T07:29:21;14.18;;;8.95;;
9208;SDS011;4639;48.862;9.188;2023-07-02T07:31:47;13.05;;;8.73;;
9208;SDS011;4639;48.862;9.188;2023-07-02T07:34:12;13.35;;;9.30;;
9208;SDS011;4639;48.862;9.188;2023-07-02T07:36:38;13.15;;;9.77;;
9208;SDS011;4639;48.862;9.188;2023-07-02T07:39:04;17.70;;;9.57;;
9208;SDS011;4639;48.862;9.188;2023-07-02T07:41:29;15.32;;;9.55;;
9208;SDS011;4639;48.862;9.188;2023-07-02T07:43:55;17.38;;;9.55;;
9208;SDS011;4639;48.862;9.188;2023-07-02T07:46:20;14.63;;;9.02;;
9208;SDS011;4639;48.862;9.188;2023-07-02T07:48:46;16.90;;;10.18;;
9208;SDS011;4639;48.862;9.188;2023-07-02T07:51:12;16.67;;;9.98;;
9208;SDS011;4639;48.862;9.188;2023-07-02T07:53:37;15.32;;;9.45;;
9208;SDS011;4639;48.862;9.188;2023-07-02T07:56:06;14.65;;;9.27;;
9208;SDS011;4639;48.862;9.188;2023-07-02T07:58:31;18.13;;;10.68;;
9208;SDS011;4639;48.862;9.188;2023-07-02T08:00:57;19.33;;;9.63;;
9208;SDS011;4639;48.862;9.188;2023-07-02T08:03:23;14.07;;;10.25;;
9208;SDS011;4639;48.862;9.188;2023-07-02T08:05:48;16.52;;;10.93;;
9208;SDS011;4639;48.862;9.188;2023-07-02T08:08:14;16.58;;;11.05;;
9208;SDS011;4639;48.862;9.188;2023-07-02T08:10:40;18.42;;;10.98;;
9208;SDS011;4639;48.862;9.188;2023-07-02T08:13:05;15.57;;;11.18;;
9208;SDS011;4639;48.862;9.188;2023-07-02T08:15:32;19.08;;;11.23;;
9208;SDS011;4639;48.862;9.188;2023-07-02T08:17:58;20.15;;;11.48;;
9208;SDS011;4639;48.862;9.188;2023-07-02T08:20:24;21.23;;;12.00;;
9208;SDS011;4639;48.862;9.188;2023-07-02T08:22:50;19.15;;;11.48;;
9208;SDS011;4639;48.862;9.188;2023-07-02T08:25:16;19.20;;;11.90;;
9208;SDS011;4639;48.862;9.188;2023-07-02T08:27:43;17.13;;;11.48;;
9208;SDS011;4639;48.862;9.188;2023-07-02T08:30:08;20.25;;;11.43;;
9208;SDS011;4639;48.862;9.188;2023-07-02T08:32:34;21.42;;;12.27;;
9208;SDS011;4639;48.862;9.188;2023-07-02T08:35:00;20.63;;;11.80;;
9208;SDS011;4639;48.862;9.188;2023-07-02T08:37:26;16.33;;;11.13;;
9208;SDS011;4639;48.862;9.188;2023-07-02T08:39:51;14.57;;;10.82;;
9208;SDS011;4639;48.862;9.188;2023-07-02T08:42:17;19.50;;;11.10;;
9208;SDS011;4639;48.862;9.188;2023-07-02T08:44:46;19.00;;;11.23;;
9208;SDS011;4639;48.862;9.188;2023-07-02T08:47:14;16.33;;;11.55;;
9208;SDS011;4639;48.862;9.188;2023-07-02T08:49:41;17.27;;;11.90;;
9208;SDS011;4639;48.862;9.188;2023-07-02T08:52:07;17.65;;;11.00;;
9208;SDS011;4639;48.862;9.188;2023-07-02T08:54:33;19.08;;;11.05;;
9208;SDS011;4639;48.862;9.188;2023-07-02T08:56:58;20.63;;;11.82;;
9208;SDS011;4639;48.862;9.188;2023-07-02T08:59:26;18.35;;;11.90;;
9208;SDS011;4639;48.862;9.188;2023-07-02T09:01:52;22.42;;;11.60;;
9208;SDS011;4639;48.862;9.188;2023-07-02T09:07:11;18.15;;;11.25;;
9208;SDS011;4639;48.862;9.188;2023-07-02T09:09:45;16.67;;;10.88;;
9208;SDS011;4639;48.862;9.188;2023-07-02T09:12:22;16.30;;;11.02;;
9208;SDS011;4639;48.862;9.188;2023-07-02T09:14:59;17.25;;;10.95;;
9208;SDS011;4639;48.862;9.188;2023-07-02T09:17:29;16.85;;;10.95;;
9208;SDS011;4639;48.862;9.188;2023-07-02T09:19:55;18.20;;;10.38;;
9208;SDS011;4639;48.862;9.188;2023-07-02T09:22:22;17.70;;;10.90;;
9208;SDS011;4639;48.862;9.188;2023-07-02T09:24:51;18.55;;;11.70;;
9208;SDS011;4639;48.862;9.188;2023-07-02T09:27:19;18.58;;;12.15;;
9208;SDS011;4639;48.862;9.188;2023-07-02T09:29:49;16.33;;;11.40;;
9208;SDS011;4639;48.862;9.188;2023-07-02T09:32:23;15.50;;;11.02;;
9208;SDS011;4639;48.862;9.188;2023-07-02T09:34:54;16.02;;;10.70;;
9208;SDS011;4639;48.862;9.188;2023-07-02T09:37:22;19.17;;;12.25;;
9208;SDS011;4639;48.862;9.188;2023-07-02T09:39:49;17.98;;;13.20;;
9208;SDS011;4639;48.862;9.188;2023-07-02T09:42:17;18.92;;;12.57;;
9208;SDS011;4639;48.862;9.188;2023-07-02T09:44:47;30.83;;;13.23;;
9208;SDS011;4639;48.862;9.188;2023-07-02T09:47:14;17.25;;;11.68;;
9208;SDS011;4639;48.862;9.188;2023-07-02T09:49:45;16.50;;;11.00;;
9208;SDS011;4639;48.862;9.188;2023-07-02T09:52:14;17.02;;;12.68;;
9208;SDS011;4639;48.862;9.188;2023-07-02T09:54:41;20.30;;;12.27;;
9208;SDS011;4639;48.862;9.188;2023-07-02T09:57:07;19.30;;;12.15;;
9208;SDS011;4639;48.862;9.188;2023-07-02T09:59:32;18.27;;;11.95;;
9208;SDS011;4639;48.862;9.188;2023-07-02T10:01:58;21.25;;;13.27;;
9208;SDS011;4639;48.862;9.188;2023-07-02T10:04:24;19.02;;;12.30;;
9208;SDS011;4639;48.862;9.188;2023-07-02T10:06:54;20.05;;;12.52;;
9208;SDS011;4639;48.862;9.188;2023-07-02T10:09:21;16.30;;;11.70;;
9208;SDS011;4639;48.862;9.188;2023-07-02T10:11:59;16.70;;;12.00;;
9208;SDS011;4639;48.862;9.188;2023-07-02T10:14:24;16.33;;;11.70;;
9208;SDS011;4639;48.862;9.188;2023-07-02T10:19:20;20.73;;;13.43;;
9208;SDS011;4639;48.862;9.188;2023-07-02T10:21:47;19.42;;;11.80;;
9208;SDS011;4639;48.862;9.188;2023-07-02T10:24:25;18.42;;;12.23;;
9208;SDS011;4639;48.862;9.188;2023-07-02T10:26:54;13.88;;;11.00;;
9208;SDS011;4639;48.862;9.188;2023-07-02T10:29:24;18.83;;;12.30;;
9208;SDS011;4639;48.862;9.188;2023-07-02T10:31:51;14.60;;;10.85;;
9208;SDS011;4639;48.862;9.188;2023-07-02T10:34:31;17.42;;;11.70;;
9208;SDS011;4639;48.862;9.188;2023-07-02T10:36:59;17.95;;;11.93;;
9208;SDS011;4639;48.862;9.188;2023-07-02T10:39:25;15.05;;;11.43;;
9208;SDS011;4639;48.862;9.188;2023-07-02T10:41:51;15.88;;;12.25;;
9208;SDS011;4639;48.862;9.188;2023-07-02T10:44:17;18.88;;;13.20;;
9208;SDS011;4639;48.862;9.188;2023-07-02T10:46:43;16.00;;;12.57;;
9208;SDS011;4639;48.862;9.188;2023-07-02T10:49:10;17.52;;;12.75;;
9208;SDS011;4639;48.862;9.188;2023-07-02T10:51:36;19.42;;;16.27;;
9208;SDS011;4639;48.862;9.188;2023-07-02T10:54:02;21.73;;;17.73;;
9208;SDS011;4639;48.862;9.188;2023-07-02T10:56:29;17.88;;;12.35;;
9208;SDS011;4639;48.862;9.188;2023-07-02T10:58:55;19.90;;;13.05;;
9208;SDS011;4639;48.862;9.188;2023-07-02T11:01:25;21.15;;;13.98;;
9208;SDS011;4639;48.862;9.188;2023-07-02T11:03:58;16.92;;;12.52;;
9208;SDS011;4639;48.862;9.188;2023-07-02T11:06:31;20.80;;;14.07;;
9208;SDS011;4639;48.862;9.188;2023-07-02T11:08:58;21.33;;;16.52;;
9208;SDS011;4639;48.862;9.188;2023-07-02T11:11:24;16.40;;;12.43;;
9208;SDS011;4639;48.862;9.188;2023-07-02T11:13:50;15.90;;;11.43;;
9208;SDS011;4639;48.862;9.188;2023-07-02T11:16:18;18.52;;;11.48;;
9208;SDS011;4639;48.862;9.188;2023-07-02T11:18:45;18.13;;;12.48;;
9208;SDS011;4639;48.862;9.188;2023-07-02T11:21:10;14.20;;;12.50;;
9208;SDS011;4639;48.862;9.188;2023-07-02T11:23:36;20.00;;;13.07;;
9208;SDS011;4639;48.862;9.188;2023-07-02T11:26:02;15.93;;;12.63;;
9208;SDS011;4639;48.862;9.188;2023-07-02T11:28:29;17.35;;;11.70;;
9208;SDS011;4639;48.862;9.188;2023-07-02T11:30:56;16.13;;;11.95;;
9208;SDS011;4639;48.862;9.188;2023-07-02T11:33:39;17.92;;;12.77;;
9208;SDS011;4639;48.862;9.188;2023-07-02T11:36:05;19.17;;;11.95;;
9208;SDS011;4639;48.862;9.188;2023-07-02T11:38:35;16.30;;;11.98;;
9208;SDS011;4639;48.862;9.188;2023-07-02T11:41:04;13.27;;;11.38;;
9208;SDS011;4639;48.862;9.188;2023-07-02T11:43:29;15.68;;;10.98;;
9208;SDS011;4639;48.862;9.188;2023-07-02T11:45:55;16.30;;;11.90;;
9208;SDS011;4639;48.862;9.188;2023-07-02T11:48:21;19.50;;;12.95;;
9208;SDS011;4639;48.862;9.188;2023-07-02T11:50:46;22.35;;;12.13;;
9208;SDS011;4639;48.862;9.188;2023-07-02T11:53:12;14.85;;;11.60;;
9208;SDS011;4639;48.862;9.188;2023-07-02T11:55:37;15.98;;;12.27;;
9208;SDS011;4639;48.862;9.188;2023-07-02T11:58:03;19.40;;;13.00;;
9208;SDS011;4639;48.862;9.188;2023-07-02T12:00:29;15.25;;;11.02;;
9208;SDS011;4639;48.862;9.188;2023-07-02T12:02:54;18.73;;;12.55;;
9208;SDS011;4639;48.862;9.188;2023-07-02T12:05:20;18.20;;;12.10;;
9208;SDS011;4639;48.862;9.188;2023-07-02T12:07:46;19.55;;;12.05;;
9208;SDS011;4639;48.862;9.188;2023-07-02T12:10:11;16.90;;;11.73;;
9208;SDS011;4639;48.862;9.188;2023-07-02T12:12:37;19.50;;;13.18;;
9208;SDS011;4639;48.862;9.188;2023-07-02T12:15:02;18.17;;;12.43;;
9208;SDS011;4639;48.862;9.188;2023-07-02T12:17:28;18.35;;;11.93;;
9208;SDS011;4639;48.862;9.188;2023-07-02T12:19:54;13.98;;;11.32;;
9208;SDS011;4639;48.862;9.188;2023-07-02T12:22:20;17.48;;;11.68;;
9208;SDS011;4639;48.862;9.188;2023-07-02T12:24:47;18.75;;;11.85;;
9208;SDS011;4639;48.862;9.188;2023-07-02T12:27:15;19.98;;;12.18;;
9208;SDS011;4639;48.862;9.188;2023-07-02T12:29:40;16.67;;;11.40;;
9208;SDS011;4639;48.862;9.188;2023-07-02T12:32:06;20.67;;;13.27;;
9208;SDS011;4639;48.862;9.188;2023-07-02T12:34:32;18.67;;;12.55;;
9208;SDS011;4639;48.862;9.188;2023-07-02T12:36:57;17.13;;;13.02;;
9208;SDS011;4639;48.862;9.188;2023-07-02T12:39:23;19.33;;;13.60;;
9208;SDS011;4639;48.862;9.188;2023-07-02T12:41:48;15.75;;;11.60;;
9208;SDS011;4639;48.862;9.188;2023-07-02T12:44:14;15.25;;;13.07;;
9208;SDS011;4639;48.862;9.188;2023-07-02T12:46:39;20.55;;;12.20;;
9208;SDS011;4639;48.862;9.188;2023-07-02T12:49:05;20.40;;;12.57;;
9208;SDS011;4639;48.862;9.188;2023-07-02T12:51:31;19.50;;;13.15;;
9208;SDS011;4639;48.862;9.188;2023-07-02T12:53:56;17.00;;;12.43;;
9208;SDS011;4639;48.862;9.188;2023-07-02T12:56:22;19.33;;;12.07;;
9208;SDS011;4639;48.862;9.188;2023-07-02T12:58:47;15.35;;;11.80;;
9208;SDS011;4639;48.862;9.188;2023-07-02T13:01:13;17.50;;;12.88;;
9208;SDS011;4639;48.862;9.188;2023-07-02T13:03:44;16.77;;;12.45;;
9208;SDS011;4639;48.862;9.188;2023-07-02T13:06:11;16.42;;;12.20;;
9208;SDS011;4639;48.862;9.188;2023-07-02T13:08:36;17.77;;;12.88;;
9208;SDS011;4639;48.862;9.188;2023-07-02T13:11:02;14.95;;;11.50;;
9208;SDS011;4639;48.862;9.188;2023-07-02T13:13:27;17.85;;;12.02;;
9208;SDS011;4639;48.862;9.188;2023-07-02T13:15:53;17.75;;;13.13;;
9208;SDS011;4639;48.862;9.188;2023-07-02T13:18:18;19.85;;;12.48;;
9208;SDS011;4639;48.862;9.188;2023-07-02T13:20:44;16.50;;;12.50;;
9208;SDS011;4639;48.862;9.188;2023-07-02T13:23:09;16.23;;;12.32;;
9208;SDS011;4639;48.862;9.188;2023-07-02T13:25:35;15.75;;;12.60;;
9208;SDS011;4639;48.862;9.188;2023-07-02T13:28:00;15.82;;;12.18;;
9208;SDS011;4639;48.862;9.188;2023-07-02T13:30:26;19.58;;;12.77;;
9208;SDS011;4639;48.862;9.188;2023-07-02T13:32:53;17.75;;;11.85;;
9208;SDS011;4639;48.862;9.188;2023-07-02T13:35:19;17.73;;;12.07;;
9208;SDS011;4639;48.862;9.188;2023-07-02T13:37:45;18.10;;;13.10;;
9208;SDS011;4639;48.862;9.188;2023-07-02T13:40:11;14.65;;;12.23;;
9208;SDS011;4639;48.862;9.188;2023-07-02T13:42:37;17.17;;;12.80;;
9208;SDS011;4639;48.862;9.188;2023-07-02T13:45:04;14.20;;;11.95;;
9208;SDS011;4639;48.862;9.188;2023-07-02T13:47:29;18.17;;;13.10;;
9208;SDS011;4639;48.862;9.188;2023-07-02T13:49:55;17.15;;;12.70;;
9208;SDS011;4639;48.862;9.188;2023-07-02T13:52:21;17.23;;;12.13;;
9208;SDS011;4639;48.862;9.188;2023-07-02T13:54:46;17.80;;;12.88;;
9208;SDS011;4639;48.862;9.188;2023-07-02T13:57:12;16.40;;;11.77;;
9208;SDS011;4639;48.862;9.188;2023-07-02T13:59:38;16.30;;;12.90;;
9208;SDS011;4639;48.862;9.188;2023-07-02T14:02:04;16.17;;;11.77;;
9208;SDS011;4639;48.862;9.188;2023-07-02T14:04:30;14.60;;;12.15;;
9208;SDS011;4639;48.862;9.188;2023-07-02T14:06:57;14.93;;;11.80;;
9208;SDS011;4639;48.862;9.188;2023-07-02T14:09:22;17.42;;;12.32;;
9208;SDS011;4639;48.862;9.188;2023-07-02T14:11:48;17.83;;;12.07;;
9208;SDS011;4639;48.862;9.188;2023-07-02T14:14:13;16.70;;;11.95;;
9208;SDS011;4639;48.862;9.188;2023-07-02T14:16:39;15.98;;;11.98;;
9208;SDS011;4639;48.862;9.188;2023-07-02T14:19:05;15.52;;;12.57;;
9208;SDS011;4639;48.862;9.188;2023-07-02T14:21:30;14.65;;;11.73;;
9208;SDS011;4639;48.862;9.188;2023-07-02T14:23:56;13.90;;;12.25;;
9208;SDS011;4639;48.862;9.188;2023-07-02T14:26:23;15.07;;;11.80;;
9208;SDS011;4639;48.862;9.188;2023-07-02T14:28:48;14.93;;;11.50;;
9208;SDS011;4639;48.862;9.188;2023-07-02T14:31:14;15.10;;;12.02;;
9208;SDS011;4639;48.862;9.188;2023-07-02T14:33:39;15.65;;;11.38;;
9208;SDS011;4639;48.862;9.188;2023-07-02T14:36:05;14.90;;;11.48;;
9208;SDS011;4639;48.862;9.188;2023-07-02T14:38:31;14.60;;;11.13;;
9208;SDS011;4639;48.862;9.188;2023-07-02T14:40:58;18.17;;;12.45;;
9208;SDS011;4639;48.862;9.188;2023-07-02T14:43:25;17.65;;;11.90;;
9208;SDS011;4639;48.862;9.188;2023-07-02T14:45:54;16.95;;;12.23;;
9208;SDS011;4639;48.862;9.188;2023-07-02T14:48:20;15.80;;;11.30;;
9208;SDS011;4639;48.862;9.188;2023-07-02T14:50:56;17.27;;;11.45;;
9208;SDS011;4639;48.862;9.188;2023-07-02T14:53:23;15.15;;;11.90;;
9208;SDS011;4639;48.862;9.188;2023-07-02T14:55:50;15.07;;;12.10;;
9208;SDS011;4639;48.862;9.188;2023-07-02T14:58:20;15.00;;;12.00;;
9208;SDS011;4639;48.862;9.188;2023-07-02T15:00:46;15.98;;;11.82;;